Allentown, New Jersey
Current Conditions -  °F | °C
As of 3:58 AM on Wednesday 22 Oct 2014 (Local Time) from KWRI Reporting Station
Overcast Overcast  
Wind Chill: 13°   Ceiling: 800
Heat Index: 13°   Visibility: 10mi
Dew Point: 12°   Wind: 10mph
Humidity: 99%   Direction: 10°N
Pressure: 29.81"   Gusts: NA
Location:  40.18°N, 74.58°W
Report Text: KWRI 220758Z AUTO 01009KT 10SM OVC008 13/12 A2981 RMK AO2 LTG DSNT E SLP098 T01250124
Loading
Personal Weather Stations






























Interactive Weather Map
Tropical Storm Tracking
New forecast layout! Learn more

10-Day Weather Forecast

Advertisements
Track Severe Weather on mobile